sensor_id;sensor_type;location;lat;lon;timestamp;P1;durP1;ratioP1;P2;durP2;ratioP2
26774;SDS011;14362;51.902;7.626;2024-03-23T00:54:17;6.63;;;2.90;;
26774;SDS011;14362;51.902;7.626;2024-03-23T00:58:18;8.43;;;2.53;;
26774;SDS011;14362;51.902;7.626;2024-03-23T01:02:20;9.30;;;2.75;;
26774;SDS011;14362;51.902;7.626;2024-03-23T01:06:21;10.95;;;2.30;;
26774;SDS011;14362;51.902;7.626;2024-03-23T01:10:24;8.38;;;2.45;;
26774;SDS011;14362;51.902;7.626;2024-03-23T01:14:24;8.07;;;2.90;;
26774;SDS011;14362;51.902;7.626;2024-03-23T01:18:26;6.93;;;2.15;;
26774;SDS011;14362;51.902;7.626;2024-03-23T01:22:27;8.18;;;2.40;;
26774;SDS011;14362;51.902;7.626;2024-03-23T01:26:29;8.23;;;2.47;;
26774;SDS011;14362;51.902;7.626;2024-03-23T01:30:31;7.45;;;2.50;;
26774;SDS011;14362;51.902;7.626;2024-03-23T01:34:31;11.10;;;2.92;;
26774;SDS011;14362;51.902;7.626;2024-03-23T01:38:32;6.40;;;2.70;;
26774;SDS011;14362;51.902;7.626;2024-03-23T01:42:35;13.70;;;3.03;;
26774;SDS011;14362;51.902;7.626;2024-03-23T01:46:37;8.70;;;3.00;;
26774;SDS011;14362;51.902;7.626;2024-03-23T01:50:39;11.73;;;3.53;;
26774;SDS011;14362;51.902;7.626;2024-03-23T01:54:40;11.60;;;2.95;;
26774;SDS011;14362;51.902;7.626;2024-03-23T01:58:43;13.85;;;5.00;;
26774;SDS011;14362;51.902;7.626;2024-03-23T02:02:45;9.02;;;3.40;;
26774;SDS011;14362;51.902;7.626;2024-03-23T02:06:46;9.48;;;3.03;;
26774;SDS011;14362;51.902;7.626;2024-03-23T02:10:48;10.10;;;2.78;;
26774;SDS011;14362;51.902;7.626;2024-03-23T02:14:51;9.40;;;2.92;;
26774;SDS011;14362;51.902;7.626;2024-03-23T02:18:53;11.45;;;4.13;;
26774;SDS011;14362;51.902;7.626;2024-03-23T02:22:55;13.35;;;3.90;;
26774;SDS011;14362;51.902;7.626;2024-03-23T02:26:57;9.93;;;3.97;;
26774;SDS011;14362;51.902;7.626;2024-03-23T02:30:58;17.67;;;4.00;;
26774;SDS011;14362;51.902;7.626;2024-03-23T02:35:01;12.55;;;4.40;;
26774;SDS011;14362;51.902;7.626;2024-03-23T02:39:04;14.15;;;4.90;;
26774;SDS011;14362;51.902;7.626;2024-03-23T02:43:05;13.73;;;4.57;;
26774;SDS011;14362;51.902;7.626;2024-03-23T02:47:06;15.88;;;5.82;;
26774;SDS011;14362;51.902;7.626;2024-03-23T02:51:08;11.13;;;4.78;;
26774;SDS011;14362;51.902;7.626;2024-03-23T02:55:11;14.65;;;4.32;;
26774;SDS011;14362;51.902;7.626;2024-03-23T02:59:13;14.27;;;4.68;;
26774;SDS011;14362;51.902;7.626;2024-03-23T03:03:15;18.83;;;4.57;;
26774;SDS011;14362;51.902;7.626;2024-03-23T03:07:16;9.90;;;3.92;;
26774;SDS011;14362;51.902;7.626;2024-03-23T03:11:19;10.90;;;3.65;;
26774;SDS011;14362;51.902;7.626;2024-03-23T03:15:20;21.50;;;3.80;;
26774;SDS011;14362;51.902;7.626;2024-03-23T03:19:22;13.10;;;3.92;;
26774;SDS011;14362;51.902;7.626;2024-03-23T03:23:23;12.73;;;3.95;;
26774;SDS011;14362;51.902;7.626;2024-03-23T03:27:26;15.98;;;4.22;;
26774;SDS011;14362;51.902;7.626;2024-03-23T03:31:27;12.55;;;4.43;;
26774;SDS011;14362;51.902;7.626;2024-03-23T03:35:27;18.20;;;5.20;;
26774;SDS011;14362;51.902;7.626;2024-03-23T03:39:30;13.80;;;5.68;;
26774;SDS011;14362;51.902;7.626;2024-03-23T03:43:32;13.52;;;4.72;;
26774;SDS011;14362;51.902;7.626;2024-03-23T03:47:34;16.33;;;5.65;;
26774;SDS011;14362;51.902;7.626;2024-03-23T03:51:35;12.05;;;4.80;;
26774;SDS011;14362;51.902;7.626;2024-03-23T03:55:37;24.02;;;6.90;;
26774;SDS011;14362;51.902;7.626;2024-03-23T03:59:40;16.67;;;6.28;;
26774;SDS011;14362;51.902;7.626;2024-03-23T04:03:42;21.13;;;5.90;;
26774;SDS011;14362;51.902;7.626;2024-03-23T04:07:44;19.95;;;5.47;;
26774;SDS011;14362;51.902;7.626;2024-03-23T04:11:45;12.65;;;5.35;;
26774;SDS011;14362;51.902;7.626;2024-03-23T04:15:53;17.70;;;6.15;;
26774;SDS011;14362;51.902;7.626;2024-03-23T04:19:55;16.98;;;5.97;;
26774;SDS011;14362;51.902;7.626;2024-03-23T04:23:57;25.25;;;5.70;;
26774;SDS011;14362;51.902;7.626;2024-03-23T04:27:58;23.90;;;6.30;;
26774;SDS011;14362;51.902;7.626;2024-03-23T04:32:01;13.27;;;5.95;;
26774;SDS011;14362;51.902;7.626;2024-03-23T04:36:03;23.50;;;5.43;;
26774;SDS011;14362;51.902;7.626;2024-03-23T04:40:05;16.65;;;5.28;;
26774;SDS011;14362;51.902;7.626;2024-03-23T04:44:07;10.75;;;4.82;;
26774;SDS011;14362;51.902;7.626;2024-03-23T04:48:10;19.63;;;5.85;;
26774;SDS011;14362;51.902;7.626;2024-03-23T04:52:12;26.20;;;6.80;;
26774;SDS011;14362;51.902;7.626;2024-03-23T04:56:13;19.52;;;5.97;;
26774;SDS011;14362;51.902;7.626;2024-03-23T05:00:15;26.00;;;6.63;;
26774;SDS011;14362;51.902;7.626;2024-03-23T05:04:18;19.95;;;6.97;;
26774;SDS011;14362;51.902;7.626;2024-03-23T05:08:20;24.70;;;7.75;;
26774;SDS011;14362;51.902;7.626;2024-03-23T05:12:21;18.02;;;6.85;;
26774;SDS011;14362;51.902;7.626;2024-03-23T05:16:22;23.05;;;8.98;;
26774;SDS011;14362;51.902;7.626;2024-03-23T05:20:25;22.83;;;8.48;;
26774;SDS011;14362;51.902;7.626;2024-03-23T05:24:27;22.10;;;8.23;;
26774;SDS011;14362;51.902;7.626;2024-03-23T05:28:28;27.10;;;9.93;;
26774;SDS011;14362;51.902;7.626;2024-03-23T05:32:30;21.70;;;9.00;;
26774;SDS011;14362;51.902;7.626;2024-03-23T05:36:33;24.08;;;9.48;;
26774;SDS011;14362;51.902;7.626;2024-03-23T05:40:34;33.13;;;10.27;;
26774;SDS011;14362;51.902;7.626;2024-03-23T05:44:37;25.98;;;10.05;;
26774;SDS011;14362;51.902;7.626;2024-03-23T05:48:39;35.58;;;11.13;;
26774;SDS011;14362;51.902;7.626;2024-03-23T05:52:41;28.90;;;10.07;;
26774;SDS011;14362;51.902;7.626;2024-03-23T05:56:43;30.52;;;11.93;;
26774;SDS011;14362;51.902;7.626;2024-03-23T06:00:45;29.58;;;11.10;;
26774;SDS011;14362;51.902;7.626;2024-03-23T06:04:47;33.80;;;11.68;;
26774;SDS011;14362;51.902;7.626;2024-03-23T06:08:48;26.98;;;13.30;;
26774;SDS011;14362;51.902;7.626;2024-03-23T06:12:50;37.75;;;12.23;;
26774;SDS011;14362;51.902;7.626;2024-03-23T06:16:54;41.28;;;12.73;;
26774;SDS011;14362;51.902;7.626;2024-03-23T06:20:56;27.53;;;11.40;;
26774;SDS011;14362;51.902;7.626;2024-03-23T06:24:59;32.28;;;10.85;;
26774;SDS011;14362;51.902;7.626;2024-03-23T06:29:00;31.17;;;13.52;;
26774;SDS011;14362;51.902;7.626;2024-03-23T06:33:01;29.67;;;13.40;;
26774;SDS011;14362;51.902;7.626;2024-03-23T06:37:03;32.78;;;13.18;;
26774;SDS011;14362;51.902;7.626;2024-03-23T06:41:06;26.25;;;11.80;;
26774;SDS011;14362;51.902;7.626;2024-03-23T06:45:08;27.10;;;11.35;;
26774;SDS011;14362;51.902;7.626;2024-03-23T06:49:10;22.95;;;10.30;;
26774;SDS011;14362;51.902;7.626;2024-03-23T06:53:11;33.60;;;10.88;;
26774;SDS011;14362;51.902;7.626;2024-03-23T06:57:14;17.90;;;9.52;;
26774;SDS011;14362;51.902;7.626;2024-03-23T07:01:16;22.10;;;11.00;;
26774;SDS011;14362;51.902;7.626;2024-03-23T07:05:17;32.88;;;10.90;;
26774;SDS011;14362;51.902;7.626;2024-03-23T07:09:18;26.65;;;10.98;;
26774;SDS011;14362;51.902;7.626;2024-03-23T07:13:26;19.77;;;10.52;;
26774;SDS011;14362;51.902;7.626;2024-03-23T07:17:27;21.17;;;10.65;;
26774;SDS011;14362;51.902;7.626;2024-03-23T07:21:29;30.42;;;11.18;;
26774;SDS011;14362;51.902;7.626;2024-03-23T07:25:30;32.67;;;10.93;;
26774;SDS011;14362;51.902;7.626;2024-03-23T07:29:33;25.83;;;11.85;;
26774;SDS011;14362;51.902;7.626;2024-03-23T07:33:34;19.73;;;9.52;;
26774;SDS011;14362;51.902;7.626;2024-03-23T07:37:37;25.75;;;9.02;;
26774;SDS011;14362;51.902;7.626;2024-03-23T07:41:38;22.52;;;9.38;;
26774;SDS011;14362;51.902;7.626;2024-03-23T07:45:41;24.83;;;9.20;;
26774;SDS011;14362;51.902;7.626;2024-03-23T07:49:42;18.17;;;8.57;;
26774;SDS011;14362;51.902;7.626;2024-03-23T07:53:44;21.42;;;7.32;;
26774;SDS011;14362;51.902;7.626;2024-03-23T07:57:46;17.42;;;6.95;;
26774;SDS011;14362;51.902;7.626;2024-03-23T08:01:48;17.48;;;6.95;;
26774;SDS011;14362;51.902;7.626;2024-03-23T08:05:50;18.52;;;7.05;;
26774;SDS011;14362;51.902;7.626;2024-03-23T08:09:51;20.73;;;6.53;;
26774;SDS011;14362;51.902;7.626;2024-03-23T08:13:53;16.33;;;6.22;;
26774;SDS011;14362;51.902;7.626;2024-03-23T08:17:56;18.20;;;5.65;;
26774;SDS011;14362;51.902;7.626;2024-03-23T08:21:56;17.25;;;6.50;;
26774;SDS011;14362;51.902;7.626;2024-03-23T08:25:58;17.83;;;5.22;;
26774;SDS011;14362;51.902;7.626;2024-03-23T08:29:59;15.68;;;4.85;;
26774;SDS011;14362;51.902;7.626;2024-03-23T08:34:02;14.23;;;5.43;;
26774;SDS011;14362;51.902;7.626;2024-03-23T08:38:03;14.85;;;4.53;;
26774;SDS011;14362;51.902;7.626;2024-03-23T08:42:05;12.73;;;3.63;;
26774;SDS011;14362;51.902;7.626;2024-03-23T08:46:07;14.77;;;3.67;;
26774;SDS011;14362;51.902;7.626;2024-03-23T08:50:10;14.57;;;3.78;;
26774;SDS011;14362;51.902;7.626;2024-03-23T08:54:12;11.35;;;4.07;;
26774;SDS011;14362;51.902;7.626;2024-03-23T08:58:13;11.55;;;3.65;;
26774;SDS011;14362;51.902;7.626;2024-03-23T09:02:17;10.35;;;3.38;;
26774;SDS011;14362;51.902;7.626;2024-03-23T09:06:20;13.55;;;3.83;;
26774;SDS011;14362;51.902;7.626;2024-03-23T09:10:21;14.48;;;4.47;;
26774;SDS011;14362;51.902;7.626;2024-03-23T09:14:23;10.75;;;4.78;;
26774;SDS011;14362;51.902;7.626;2024-03-23T09:18:24;17.38;;;5.32;;
26774;SDS011;14362;51.902;7.626;2024-03-23T09:22:27;17.02;;;4.90;;
26774;SDS011;14362;51.902;7.626;2024-03-23T09:26:28;8.25;;;2.90;;
26774;SDS011;14362;51.902;7.626;2024-03-23T09:30:30;10.00;;;4.10;;
26774;SDS011;14362;51.902;7.626;2024-03-23T09:34:34;7.57;;;3.40;;
26774;SDS011;14362;51.902;7.626;2024-03-23T09:38:36;8.77;;;4.38;;
26774;SDS011;14362;51.902;7.626;2024-03-23T09:42:37;10.27;;;3.38;;
26774;SDS011;14362;51.902;7.626;2024-03-23T09:46:38;8.05;;;3.75;;
26774;SDS011;14362;51.902;7.626;2024-03-23T09:50:39;6.45;;;3.45;;
26774;SDS011;14362;51.902;7.626;2024-03-23T09:54:42;14.75;;;5.93;;
26774;SDS011;14362;51.902;7.626;2024-03-23T09:58:44;10.40;;;4.63;;
26774;SDS011;14362;51.902;7.626;2024-03-23T10:02:45;10.98;;;4.43;;
26774;SDS011;14362;51.902;7.626;2024-03-23T10:06:46;10.45;;;4.10;;
26774;SDS011;14362;51.902;7.626;2024-03-23T10:10:49;11.05;;;4.18;;
26774;SDS011;14362;51.902;7.626;2024-03-23T10:14:51;12.77;;;4.55;;
26774;SDS011;14362;51.902;7.626;2024-03-23T10:18:52;15.63;;;4.60;;
26774;SDS011;14362;51.902;7.626;2024-03-23T10:22:53;9.82;;;4.90;;
26774;SDS011;14362;51.902;7.626;2024-03-23T10:26:57;11.80;;;4.25;;
26774;SDS011;14362;51.902;7.626;2024-03-23T10:30:59;10.48;;;4.60;;
26774;SDS011;14362;51.902;7.626;2024-03-23T10:35:16;17.33;;;4.47;;
26774;SDS011;14362;51.902;7.626;2024-03-23T10:59:34;4.63;;;2.50;;
26774;SDS011;14362;51.902;7.626;2024-03-23T11:13:54;9.68;;;3.08;;
26774;SDS011;14362;51.902;7.626;2024-03-23T11:18:20;6.07;;;2.45;;
26774;SDS011;14362;51.902;7.626;2024-03-23T11:23:37;3.42;;;0.95;;
26774;SDS011;14362;51.902;7.626;2024-03-23T11:28:26;3.88;;;1.33;;
26774;SDS011;14362;51.902;7.626;2024-03-23T11:52:16;2.95;;;1.80;;
26774;SDS011;14362;51.902;7.626;2024-03-23T11:56:30;5.15;;;2.30;;
26774;SDS011;14362;51.902;7.626;2024-03-23T12:00:32;4.47;;;1.80;;
26774;SDS011;14362;51.902;7.626;2024-03-23T12:04:32;6.82;;;2.15;;
26774;SDS011;14362;51.902;7.626;2024-03-23T12:08:37;2.33;;;1.60;;
26774;SDS011;14362;51.902;7.626;2024-03-23T12:12:39;6.45;;;1.90;;
26774;SDS011;14362;51.902;7.626;2024-03-23T12:16:40;5.13;;;1.83;;
26774;SDS011;14362;51.902;7.626;2024-03-23T12:20:42;7.07;;;1.80;;
26774;SDS011;14362;51.902;7.626;2024-03-23T12:24:45;4.85;;;1.83;;
26774;SDS011;14362;51.902;7.626;2024-03-23T12:28:47;5.13;;;1.80;;
26774;SDS011;14362;51.902;7.626;2024-03-23T12:32:48;8.38;;;1.92;;
26774;SDS011;14362;51.902;7.626;2024-03-23T12:36:50;4.10;;;2.05;;
26774;SDS011;14362;51.902;7.626;2024-03-23T12:40:52;3.58;;;1.40;;
26774;SDS011;14362;51.902;7.626;2024-03-23T12:44:54;7.30;;;1.80;;
26774;SDS011;14362;51.902;7.626;2024-03-23T12:48:55;5.25;;;1.90;;
26774;SDS011;14362;51.902;7.626;2024-03-23T12:52:58;5.05;;;1.63;;
26774;SDS011;14362;51.902;7.626;2024-03-23T12:57:01;4.30;;;1.63;;
26774;SDS011;14362;51.902;7.626;2024-03-23T13:01:02;4.97;;;1.98;;
26774;SDS011;14362;51.902;7.626;2024-03-23T13:05:04;6.38;;;1.75;;
26774;SDS011;14362;51.902;7.626;2024-03-23T13:09:08;5.03;;;1.85;;
26774;SDS011;14362;51.902;7.626;2024-03-23T13:13:10;6.70;;;1.88;;
26774;SDS011;14362;51.902;7.626;2024-03-23T13:17:12;9.40;;;2.20;;
26774;SDS011;14362;51.902;7.626;2024-03-23T13:21:14;7.50;;;2.35;;
26774;SDS011;14362;51.902;7.626;2024-03-23T13:25:16;4.30;;;1.60;;
26774;SDS011;14362;51.902;7.626;2024-03-23T13:29:20;6.55;;;1.80;;
26774;SDS011;14362;51.902;7.626;2024-03-23T13:33:22;4.20;;;1.67;;
26774;SDS011;14362;51.902;7.626;2024-03-23T13:37:23;6.13;;;1.90;;
26774;SDS011;14362;51.902;7.626;2024-03-23T13:41:25;4.97;;;1.85;;
26774;SDS011;14362;51.902;7.626;2024-03-23T13:45:28;4.18;;;1.98;;
26774;SDS011;14362;51.902;7.626;2024-03-23T13:49:30;6.30;;;2.10;;
26774;SDS011;14362;51.902;7.626;2024-03-23T13:53:32;5.82;;;2.10;;
26774;SDS011;14362;51.902;7.626;2024-03-23T13:57:34;7.38;;;2.20;;
26774;SDS011;14362;51.902;7.626;2024-03-23T14:01:36;3.72;;;1.75;;
26774;SDS011;14362;51.902;7.626;2024-03-23T14:05:37;7.03;;;1.90;;
26774;SDS011;14362;51.902;7.626;2024-03-23T14:09:39;8.55;;;1.98;;
26774;SDS011;14362;51.902;7.626;2024-03-23T14:13:41;3.78;;;1.20;;
26774;SDS011;14362;51.902;7.626;2024-03-23T14:17:44;4.45;;;1.40;;
26774;SDS011;14362;51.902;7.626;2024-03-23T14:21:45;2.50;;;1.40;;
26774;SDS011;14362;51.902;7.626;2024-03-23T14:25:46;3.88;;;1.40;;
26774;SDS011;14362;51.902;7.626;2024-03-23T14:29:48;4.43;;;1.98;;
26774;SDS011;14362;51.902;7.626;2024-03-23T14:33:51;6.47;;;1.80;;
26774;SDS011;14362;51.902;7.626;2024-03-23T14:37:51;4.95;;;1.70;;
26774;SDS011;14362;51.902;7.626;2024-03-23T14:41:53;7.40;;;1.90;;
26774;SDS011;14362;51.902;7.626;2024-03-23T14:46:05;7.00;;;1.73;;
26774;SDS011;14362;51.902;7.626;2024-03-23T14:50:09;3.95;;;1.55;;
26774;SDS011;14362;51.902;7.626;2024-03-23T14:54:15;4.07;;;1.50;;
26774;SDS011;14362;51.902;7.626;2024-03-23T14:58:16;9.00;;;1.88;;
26774;SDS011;14362;51.902;7.626;2024-03-23T15:02:17;3.85;;;1.30;;
26774;SDS011;14362;51.902;7.626;2024-03-23T15:06:20;4.72;;;1.42;;
26774;SDS011;14362;51.902;7.626;2024-03-23T15:10:21;3.63;;;1.20;;
26774;SDS011;14362;51.902;7.626;2024-03-23T15:14:23;4.82;;;1.15;;
26774;SDS011;14362;51.902;7.626;2024-03-23T15:18:25;2.47;;;1.20;;
26774;SDS011;14362;51.902;7.626;2024-03-23T15:22:29;4.60;;;1.27;;
26774;SDS011;14362;51.902;7.626;2024-03-23T15:26:31;4.35;;;1.17;;
26774;SDS011;14362;51.902;7.626;2024-03-23T15:30:40;4.47;;;0.95;;
26774;SDS011;14362;51.902;7.626;2024-03-23T15:34:42;5.43;;;1.15;;
26774;SDS011;14362;51.902;7.626;2024-03-23T15:38:44;5.68;;;1.95;;
26774;SDS011;14362;51.902;7.626;2024-03-23T15:42:46;5.35;;;1.30;;
26774;SDS011;14362;51.902;7.626;2024-03-23T15:46:48;3.78;;;1.55;;
26774;SDS011;14362;51.902;7.626;2024-03-23T15:50:52;3.03;;;1.10;;
26774;SDS011;14362;51.902;7.626;2024-03-23T15:54:55;4.10;;;1.10;;
26774;SDS011;14362;51.902;7.626;2024-03-23T15:58:58;2.85;;;1.10;;
26774;SDS011;14362;51.902;7.626;2024-03-23T16:03:05;3.50;;;1.05;;
26774;SDS011;14362;51.902;7.626;2024-03-23T16:07:07;6.82;;;1.20;;
26774;SDS011;14362;51.902;7.626;2024-03-23T16:11:09;4.45;;;1.10;;
26774;SDS011;14362;51.902;7.626;2024-03-23T16:15:11;4.45;;;1.10;;
26774;SDS011;14362;51.902;7.626;2024-03-23T16:19:12;3.72;;;1.15;;
26774;SDS011;14362;51.902;7.626;2024-03-23T16:23:14;5.07;;;0.90;;
26774;SDS011;14362;51.902;7.626;2024-03-23T16:27:17;3.38;;;0.82;;
26774;SDS011;14362;51.902;7.626;2024-03-23T16:31:18;2.50;;;1.17;;
26774;SDS011;14362;51.902;7.626;2024-03-23T16:35:20;2.85;;;1.10;;
26774;SDS011;14362;51.902;7.626;2024-03-23T16:39:21;3.65;;;1.15;;
26774;SDS011;14362;51.902;7.626;2024-03-23T16:43:24;3.70;;;0.90;;
26774;SDS011;14362;51.902;7.626;2024-03-23T16:47:26;4.20;;;1.95;;
26774;SDS011;14362;51.902;7.626;2024-03-23T16:51:28;2.83;;;0.98;;
26774;SDS011;14362;51.902;7.626;2024-03-23T16:55:29;8.40;;;1.40;;
26774;SDS011;14362;51.902;7.626;2024-03-23T16:59:32;4.57;;;1.13;;
26774;SDS011;14362;51.902;7.626;2024-03-23T17:03:34;6.15;;;1.00;;
26774;SDS011;14362;51.902;7.626;2024-03-23T17:07:36;1.42;;;0.80;;
26774;SDS011;14362;51.902;7.626;2024-03-23T17:11:38;2.58;;;0.90;;
26774;SDS011;14362;51.902;7.626;2024-03-23T17:15:44;2.53;;;0.60;;
26774;SDS011;14362;51.902;7.626;2024-03-23T17:19:45;2.42;;;0.85;;
26774;SDS011;14362;51.902;7.626;2024-03-23T17:23:47;7.43;;;1.30;;
26774;SDS011;14362;51.902;7.626;2024-03-23T17:27:48;4.28;;;1.45;;
26774;SDS011;14362;51.902;7.626;2024-03-23T17:31:51;2.35;;;1.20;;
26774;SDS011;14362;51.902;7.626;2024-03-23T17:35:52;1.45;;;1.08;;
26774;SDS011;14362;51.902;7.626;2024-03-23T17:39:54;3.83;;;1.58;;
26774;SDS011;14362;51.902;7.626;2024-03-23T17:43:55;3.30;;;1.35;;
26774;SDS011;14362;51.902;7.626;2024-03-23T17:47:58;2.65;;;0.90;;
26774;SDS011;14362;51.902;7.626;2024-03-23T17:52:00;2.17;;;1.10;;
26774;SDS011;14362;51.902;7.626;2024-03-23T17:56:10;2.15;;;1.00;;
26774;SDS011;14362;51.902;7.626;2024-03-23T18:00:13;2.45;;;0.93;;
26774;SDS011;14362;51.902;7.626;2024-03-23T18:04:16;3.13;;;1.27;;
26774;SDS011;14362;51.902;7.626;2024-03-23T18:08:18;2.28;;;1.25;;
26774;SDS011;14362;51.902;7.626;2024-03-23T18:12:19;2.53;;;1.20;;
26774;SDS011;14362;51.902;7.626;2024-03-23T18:16:21;4.28;;;2.00;;
26774;SDS011;14362;51.902;7.626;2024-03-23T18:20:24;0.73;;;0.73;;
26774;SDS011;14362;51.902;7.626;2024-03-23T18:24:25;4.25;;;1.00;;
26774;SDS011;14362;51.902;7.626;2024-03-23T18:28:26;2.15;;;1.20;;
26774;SDS011;14362;51.902;7.626;2024-03-23T18:32:29;28.25;;;14.50;;
26774;SDS011;14362;51.902;7.626;2024-03-23T18:36:31;8.93;;;8.02;;
26774;SDS011;14362;51.902;7.626;2024-03-23T18:40:33;12.18;;;9.75;;
26774;SDS011;14362;51.902;7.626;2024-03-23T18:44:35;6.15;;;3.20;;
26774;SDS011;14362;51.902;7.626;2024-03-23T18:48:36;5.80;;;4.30;;
26774;SDS011;14362;51.902;7.626;2024-03-23T18:52:39;15.43;;;11.80;;
26774;SDS011;14362;51.902;7.626;2024-03-23T18:56:40;9.70;;;5.60;;
26774;SDS011;14362;51.902;7.626;2024-03-23T19:00:42;3.80;;;1.73;;
26774;SDS011;14362;51.902;7.626;2024-03-23T19:04:43;9.27;;;2.63;;
26774;SDS011;14362;51.902;7.626;2024-03-23T19:08:46;5.75;;;1.65;;
26774;SDS011;14362;51.902;7.626;2024-03-23T19:12:46;7.25;;;2.78;;
26774;SDS011;14362;51.902;7.626;2024-03-23T19:16:49;8.00;;;2.33;;
26774;SDS011;14362;51.902;7.626;2024-03-23T19:20:53;5.88;;;1.60;;
26774;SDS011;14362;51.902;7.626;2024-03-23T19:24:57;50.80;;;23.48;;
26774;SDS011;14362;51.902;7.626;2024-03-23T19:28:59;4.20;;;2.28;;
26774;SDS011;14362;51.902;7.626;2024-03-23T19:33:01;2.85;;;1.77;;
26774;SDS011;14362;51.902;7.626;2024-03-23T19:37:02;3.38;;;2.35;;
26774;SDS011;14362;51.902;7.626;2024-03-23T19:41:06;8.68;;;2.22;;
26774;SDS011;14362;51.902;7.626;2024-03-23T19:45:08;2.80;;;1.80;;
26774;SDS011;14362;51.902;7.626;2024-03-23T19:49:11;8.40;;;4.90;;
26774;SDS011;14362;51.902;7.626;2024-03-23T19:53:13;4.05;;;2.22;;
26774;SDS011;14362;51.902;7.626;2024-03-23T19:57:15;4.90;;;1.85;;
26774;SDS011;14362;51.902;7.626;2024-03-23T20:01:17;3.65;;;1.60;;
26774;SDS011;14362;51.902;7.626;2024-03-23T20:05:21;3.77;;;1.43;;
26774;SDS011;14362;51.902;7.626;2024-03-23T20:09:23;1.73;;;1.20;;
26774;SDS011;14362;51.902;7.626;2024-03-23T20:13:26;11.88;;;3.78;;
26774;SDS011;14362;51.902;7.626;2024-03-23T20:17:28;3.63;;;2.13;;
26774;SDS011;14362;51.902;7.626;2024-03-23T20:21:29;4.07;;;1.95;;
26774;SDS011;14362;51.902;7.626;2024-03-23T20:25:31;4.93;;;1.58;;
26774;SDS011;14362;51.902;7.626;2024-03-23T20:29:33;4.78;;;2.10;;
26774;SDS011;14362;51.902;7.626;2024-03-23T20:33:35;4.93;;;1.92;;
26774;SDS011;14362;51.902;7.626;2024-03-23T20:37:37;3.97;;;1.92;;
26774;SDS011;14362;51.902;7.626;2024-03-23T20:41:38;5.13;;;2.22;;
26774;SDS011;14362;51.902;7.626;2024-03-23T20:45:41;6.80;;;2.00;;
26774;SDS011;14362;51.902;7.626;2024-03-23T20:49:42;3.83;;;2.50;;
26774;SDS011;14362;51.902;7.626;2024-03-23T20:53:44;4.35;;;2.30;;
26774;SDS011;14362;51.902;7.626;2024-03-23T20:57:45;6.22;;;4.28;;
26774;SDS011;14362;51.902;7.626;2024-03-23T21:01:48;8.70;;;3.88;;
26774;SDS011;14362;51.902;7.626;2024-03-23T21:05:51;4.72;;;2.45;;
26774;SDS011;14362;51.902;7.626;2024-03-23T21:09:52;4.03;;;2.67;;
26774;SDS011;14362;51.902;7.626;2024-03-23T21:13:54;4.00;;;2.42;;
26774;SDS011;14362;51.902;7.626;2024-03-23T21:17:57;7.50;;;2.80;;
26774;SDS011;14362;51.902;7.626;2024-03-23T21:21:57;7.88;;;2.85;;
26774;SDS011;14362;51.902;7.626;2024-03-23T21:25:59;5.03;;;2.83;;
26774;SDS011;14362;51.902;7.626;2024-03-23T21:30:01;6.65;;;2.63;;
26774;SDS011;14362;51.902;7.626;2024-03-23T21:34:05;4.43;;;2.53;;
26774;SDS011;14362;51.902;7.626;2024-03-23T21:38:06;4.88;;;3.15;;
26774;SDS011;14362;51.902;7.626;2024-03-23T21:42:08;3.58;;;2.47;;
26774;SDS011;14362;51.902;7.626;2024-03-23T21:46:09;4.78;;;2.85;;
26774;SDS011;14362;51.902;7.626;2024-03-23T21:50:12;6.60;;;3.17;;
26774;SDS011;14362;51.902;7.626;2024-03-23T21:54:13;4.32;;;2.97;;
26774;SDS011;14362;51.902;7.626;2024-03-23T21:58:14;5.32;;;3.47;;
26774;SDS011;14362;51.902;7.626;2024-03-23T22:02:16;9.05;;;3.83;;
26774;SDS011;14362;51.902;7.626;2024-03-23T22:06:18;6.47;;;4.25;;
26774;SDS011;14362;51.902;7.626;2024-03-23T22:10:20;7.75;;;4.47;;
26774;SDS011;14362;51.902;7.626;2024-03-23T22:14:21;6.47;;;4.35;;
26774;SDS011;14362;51.902;7.626;2024-03-23T22:18:23;9.70;;;5.10;;
26774;SDS011;14362;51.902;7.626;2024-03-23T22:22:26;9.70;;;5.32;;
26774;SDS011;14362;51.902;7.626;2024-03-23T22:26:27;9.30;;;5.43;;
26774;SDS011;14362;51.902;7.626;2024-03-23T22:30:29;8.35;;;5.75;;
26774;SDS011;14362;51.902;7.626;2024-03-23T22:34:31;6.63;;;5.45;;
26774;SDS011;14362;51.902;7.626;2024-03-23T22:38:33;8.20;;;5.22;;
26774;SDS011;14362;51.902;7.626;2024-03-23T22:42:35;8.48;;;5.15;;
26774;SDS011;14362;51.902;7.626;2024-03-23T22:46:36;8.40;;;5.63;;
26774;SDS011;14362;51.902;7.626;2024-03-23T22:50:42;8.30;;;5.47;;
26774;SDS011;14362;51.902;7.626;2024-03-23T22:54:45;7.70;;;6.10;;
26774;SDS011;14362;51.902;7.626;2024-03-23T22:58:47;9.45;;;6.20;;
26774;SDS011;14362;51.902;7.626;2024-03-23T23:02:48;9.65;;;6.35;;
26774;SDS011;14362;51.902;7.626;2024-03-23T23:06:50;13.20;;;7.30;;
26774;SDS011;14362;51.902;7.626;2024-03-23T23:10:53;10.77;;;6.97;;
26774;SDS011;14362;51.902;7.626;2024-03-23T23:14:54;15.43;;;9.90;;
26774;SDS011;14362;51.902;7.626;2024-03-23T23:18:55;14.07;;;8.77;;
26774;SDS011;14362;51.902;7.626;2024-03-23T23:22:57;14.23;;;8.65;;
26774;SDS011;14362;51.902;7.626;2024-03-23T23:27:00;12.27;;;7.78;;
26774;SDS011;14362;51.902;7.626;2024-03-23T23:31:02;17.00;;;8.73;;
26774;SDS011;14362;51.902;7.626;2024-03-23T23:35:05;13.35;;;8.48;;
26774;SDS011;14362;51.902;7.626;2024-03-23T23:39:08;15.68;;;8.48;;
26774;SDS011;14362;51.902;7.626;2024-03-23T23:43:11;15.65;;;9.45;;
26774;SDS011;14362;51.902;7.626;2024-03-23T23:47:12;14.80;;;8.60;;
26774;SDS011;14362;51.902;7.626;2024-03-23T23:51:14;18.92;;;9.20;;
26774;SDS011;14362;51.902;7.626;2024-03-23T23:55:15;13.63;;;8.65;;
26774;SDS011;14362;51.902;7.626;2024-03-23T23:59:18;14.30;;;7.63;;
